DBSRT LGIR-EDDN
Flight info
| Callsign | DBSRT |
|---|---|
| Flight time | N/A |
| Altitude | 43000 |
| Route | EPALO UM749 ATV DCT BITLA DCT BONZI DCT RETRA DCT PEVAL DCT MOBDO DCT BRENO/N0504F300 M726 MAH L132 LASMI Y103 UNKUL L610 UPALA UPALA1V |
| Aircraft | C750/M-SBDE3FGHRWXY/S |
Departure
| Time | 2026-05-06 08:36 |
|---|---|
| Airport | Heraklion International Nikos Kazantzakis Airport (LGIR) |
Arrival
| Time | N/A |
|---|---|
| Airport | Nuremberg Airport (EDDN) |
| Time | Latitude | Longitude | Altitude | Speed | Heading |
|---|---|---|---|---|---|
| 2026-05-06 07:51 | 35.33734 | 25.18769 | 87 ft | 0 kts | 184° |
| 2026-05-06 08:31 | 35.33740 | 25.18769 | 91 ft | 3 kts | 184° |
| 2026-05-06 08:32 | 35.33775 | 25.18770 | 89 ft | 4 kts | 171° |
| 2026-05-06 08:32 | 35.33804 | 25.18762 | 90 ft | 2 kts | 153° |
| 2026-05-06 08:32 | 35.33819 | 25.18745 | 88 ft | 2 kts | 115° |
| 2026-05-06 08:32 | 35.33820 | 25.18744 | 88 ft | 0 kts | 115° |
| 2026-05-06 08:34 | 35.33820 | 25.18777 | 88 ft | 8 kts | 82° |
| 2026-05-06 08:34 | 35.33817 | 25.18884 | 86 ft | 13 kts | 97° |
| 2026-05-06 08:35 | 35.33853 | 25.18985 | 85 ft | 14 kts | 53° |
| 2026-05-06 08:35 | 35.33907 | 25.19000 | 85 ft | 8 kts | 275° |
| 2026-05-06 08:35 | 35.33908 | 25.18984 | 83 ft | 0 kts | 272° |
| 2026-05-06 08:36 | 35.33910 | 25.18940 | 83 ft | 26 kts | 275° |
| 2026-05-06 08:36 | 35.33953 | 25.18343 | 87 ft | 118 kts | 274° |
| 2026-05-06 08:36 | 35.34045 | 25.17173 | 477 ft | 140 kts | 279° |
| 2026-05-06 08:36 | 35.34235 | 25.15956 | 1120 ft | 152 kts | 292° |
| 2026-05-06 08:37 | 35.34834 | 25.14870 | 1790 ft | 157 kts | 316° |
| 2026-05-06 08:37 | 35.35763 | 25.14172 | 2487 ft | 159 kts | 339° |
| 2026-05-06 08:37 | 35.36823 | 25.13791 | 3215 ft | 159 kts | 342° |
| 2026-05-06 08:37 | 35.37915 | 25.13378 | 3898 ft | 169 kts | 342° |
| 2026-05-06 08:38 | 35.39086 | 25.12953 | 4593 ft | 181 kts | 342° |
| 2026-05-06 08:38 | 35.40315 | 25.12494 | 5363 ft | 187 kts | 343° |
| 2026-05-06 08:38 | 35.41557 | 25.12039 | 6166 ft | 189 kts | 345° |
| 2026-05-06 08:38 | 35.42414 | 25.11728 | 6716 ft | 191 kts | 345° |
| 2026-05-06 08:39 | 35.43692 | 25.11261 | 7519 ft | 193 kts | 344° |
| 2026-05-06 08:39 | 35.44992 | 25.10785 | 8351 ft | 197 kts | 343° |
| 2026-05-06 08:39 | 35.46742 | 25.10145 | 9553 ft | 198 kts | 343° |
| 2026-05-06 08:39 | 35.47629 | 25.09821 | 10156 ft | 196 kts | 342° |
| 2026-05-06 08:40 | 35.48919 | 25.09349 | 10960 ft | 191 kts | 342° |
| 2026-05-06 08:40 | 35.50150 | 25.08780 | 11736 ft | 188 kts | 332° |
| 2026-05-06 08:40 | 35.51268 | 25.07982 | 12523 ft | 184 kts | 329° |
| 2026-05-06 08:40 | 35.52385 | 25.07231 | 13310 ft | 181 kts | 331° |
| 2026-05-06 08:41 | 35.53497 | 25.06524 | 14061 ft | 179 kts | 331° |
| 2026-05-06 08:41 | 35.54592 | 25.05826 | 14725 ft | 177 kts | 331° |
| 2026-05-06 08:41 | 35.55676 | 25.05133 | 15376 ft | 175 kts | 331° |
| 2026-05-06 08:41 | 35.56785 | 25.04522 | 16012 ft | 174 kts | 334° |
| 2026-05-06 08:42 | 35.57885 | 25.03899 | 16651 ft | 174 kts | 333° |
| 2026-05-06 08:42 | 35.58981 | 25.03268 | 17296 ft | 174 kts | 333° |
| 2026-05-06 08:42 | 35.60083 | 25.02638 | 17948 ft | 174 kts | 333° |
| 2026-05-06 08:42 | 35.61175 | 25.02017 | 18567 ft | 175 kts | 333° |
| 2026-05-06 08:43 | 35.62280 | 25.01387 | 19138 ft | 175 kts | 330° |
| 2026-05-06 08:43 | 35.63153 | 25.00342 | 19636 ft | 177 kts | 309° |
| 2026-05-06 08:43 | 35.63966 | 24.99217 | 20247 ft | 176 kts | 316° |
| 2026-05-06 08:43 | 35.64949 | 24.98325 | 20844 ft | 176 kts | 327° |
| 2026-05-06 08:44 | 35.66028 | 24.97602 | 21455 ft | 177 kts | 329° |
| 2026-05-06 08:44 | 35.67120 | 24.96909 | 22057 ft | 177 kts | 329° |
| 2026-05-06 08:44 | 35.68210 | 24.96214 | 22656 ft | 177 kts | 329° |
| 2026-05-06 08:44 | 35.69288 | 24.95524 | 23245 ft | 177 kts | 329° |
| 2026-05-06 08:45 | 35.70380 | 24.94821 | 23813 ft | 177 kts | 329° |
| 2026-05-06 08:45 | 35.71472 | 24.94120 | 24303 ft | 177 kts | 329° |
| 2026-05-06 08:45 | 35.72568 | 24.93418 | 24790 ft | 177 kts | 329° |
| 2026-05-06 08:45 | 35.73664 | 24.92715 | 25275 ft | 177 kts | 329° |
| 2026-05-06 08:46 | 35.74758 | 24.92013 | 25757 ft | 178 kts | 329° |
| 2026-05-06 08:46 | 35.75854 | 24.91310 | 26236 ft | 178 kts | 329° |
| 2026-05-06 08:46 | 35.76952 | 24.90606 | 26712 ft | 178 kts | 329° |
| 2026-05-06 08:46 | 35.78055 | 24.89897 | 27188 ft | 178 kts | 329° |
| 2026-05-06 08:47 | 35.79143 | 24.89199 | 27647 ft | 179 kts | 329° |
| 2026-05-06 08:47 | 35.80248 | 24.88489 | 28118 ft | 179 kts | 329° |
| 2026-05-06 08:47 | 35.81359 | 24.87775 | 28587 ft | 180 kts | 330° |
| 2026-05-06 08:47 | 35.82471 | 24.87060 | 29054 ft | 181 kts | 330° |
| 2026-05-06 08:48 | 35.83590 | 24.86341 | 29519 ft | 181 kts | 330° |
| 2026-05-06 08:48 | 35.84709 | 24.85621 | 29986 ft | 182 kts | 330° |
| 2026-05-06 08:48 | 35.85836 | 24.84896 | 30394 ft | 182 kts | 330° |
| 2026-05-06 08:48 | 35.86961 | 24.84171 | 30777 ft | 183 kts | 330° |
| 2026-05-06 08:49 | 35.88078 | 24.83452 | 31154 ft | 183 kts | 329° |
| 2026-05-06 08:49 | 35.89209 | 24.82724 | 31540 ft | 184 kts | 329° |
| 2026-05-06 08:49 | 35.90345 | 24.81992 | 31918 ft | 184 kts | 329° |
| 2026-05-06 08:49 | 35.91484 | 24.81258 | 32293 ft | 184 kts | 329° |
| 2026-05-06 08:50 | 35.92622 | 24.80525 | 32674 ft | 185 kts | 328° |
| 2026-05-06 08:50 | 35.93764 | 24.79788 | 33047 ft | 186 kts | 328° |
| 2026-05-06 08:50 | 35.94912 | 24.79048 | 33419 ft | 186 kts | 328° |
| 2026-05-06 08:50 | 35.96061 | 24.78306 | 33789 ft | 187 kts | 328° |
| 2026-05-06 08:51 | 35.97211 | 24.77563 | 34143 ft | 187 kts | 328° |
| 2026-05-06 08:51 | 35.98367 | 24.76817 | 34461 ft | 187 kts | 328° |
| 2026-05-06 08:51 | 35.99523 | 24.76070 | 34795 ft | 188 kts | 328° |
| 2026-05-06 08:51 | 36.00681 | 24.75322 | 35115 ft | 188 kts | 327° |
| 2026-05-06 08:52 | 36.01840 | 24.74573 | 35438 ft | 188 kts | 327° |
| 2026-05-06 08:52 | 36.03001 | 24.73822 | 35753 ft | 188 kts | 327° |
| 2026-05-06 08:52 | 36.04165 | 24.73070 | 36065 ft | 189 kts | 327° |
| 2026-05-06 08:52 | 36.05329 | 24.72317 | 36373 ft | 189 kts | 327° |
| 2026-05-06 08:53 | 36.06495 | 24.71562 | 36675 ft | 189 kts | 327° |
| 2026-05-06 08:53 | 36.07643 | 24.70819 | 36963 ft | 189 kts | 327° |
| 2026-05-06 08:53 | 36.08835 | 24.70041 | 37011 ft | 201 kts | 327° |
| 2026-05-06 08:53 | 36.10113 | 24.69209 | 37041 ft | 214 kts | 327° |
| 2026-05-06 08:54 | 36.11476 | 24.68324 | 37079 ft | 228 kts | 327° |
| 2026-05-06 08:54 | 36.12921 | 24.67388 | 37124 ft | 242 kts | 328° |
| 2026-05-06 08:54 | 36.14457 | 24.66393 | 37167 ft | 255 kts | 328° |
| 2026-05-06 08:54 | 36.16074 | 24.65344 | 37214 ft | 269 kts | 328° |
| 2026-05-06 08:55 | 36.17772 | 24.64242 | 37260 ft | 282 kts | 328° |
| 2026-05-06 08:55 | 36.19549 | 24.63088 | 37305 ft | 295 kts | 328° |
| 2026-05-06 08:55 | 36.21404 | 24.61883 | 37345 ft | 307 kts | 328° |
| 2026-05-06 08:55 | 36.23309 | 24.60644 | 37384 ft | 320 kts | 328° |
| 2026-05-06 08:56 | 36.25314 | 24.59340 | 37426 ft | 332 kts | 329° |
| 2026-05-06 08:56 | 36.27394 | 24.57986 | 37470 ft | 343 kts | 329° |
| 2026-05-06 08:56 | 36.29542 | 24.56587 | 37504 ft | 354 kts | 329° |
| 2026-05-06 08:56 | 36.31757 | 24.55144 | 37534 ft | 365 kts | 329° |
| 2026-05-06 08:57 | 36.34036 | 24.53657 | 37560 ft | 375 kts | 329° |
| 2026-05-06 08:57 | 36.38777 | 24.50562 | 37612 ft | 394 kts | 329° |
| 2026-05-06 08:58 | 36.43740 | 24.47316 | 37647 ft | 412 kts | 329° |
| 2026-05-06 08:58 | 36.46292 | 24.45647 | 37907 ft | 414 kts | 329° |
| 2026-05-06 08:58 | 36.48810 | 24.43999 | 38359 ft | 412 kts | 329° |
| 2026-05-06 08:58 | 36.51343 | 24.42339 | 38791 ft | 411 kts | 329° |
| 2026-05-06 08:59 | 36.53867 | 24.40682 | 39135 ft | 410 kts | 329° |
| 2026-05-06 08:59 | 36.56387 | 24.39026 | 39411 ft | 410 kts | 329° |
| 2026-05-06 08:59 | 36.58919 | 24.37363 | 39583 ft | 413 kts | 329° |
| 2026-05-06 08:59 | 36.61470 | 24.35685 | 39805 ft | 415 kts | 329° |
| 2026-05-06 09:00 | 36.64028 | 24.34002 | 40081 ft | 416 kts | 329° |
| 2026-05-06 09:00 | 36.66600 | 24.32307 | 40352 ft | 417 kts | 329° |
| 2026-05-06 09:00 | 36.69171 | 24.30613 | 40635 ft | 418 kts | 329° |
| 2026-05-06 09:00 | 36.71711 | 24.28938 | 40905 ft | 419 kts | 329° |
| 2026-05-06 09:01 | 36.74292 | 24.27235 | 41174 ft | 420 kts | 329° |
| 2026-05-06 09:01 | 36.76882 | 24.25524 | 41437 ft | 421 kts | 329° |
| 2026-05-06 09:01 | 36.79471 | 24.23812 | 41730 ft | 422 kts | 329° |
| 2026-05-06 09:01 | 36.82076 | 24.22088 | 41969 ft | 424 kts | 329° |
| 2026-05-06 09:02 | 36.84684 | 24.20361 | 42255 ft | 424 kts | 329° |
| 2026-05-06 09:02 | 36.87298 | 24.18629 | 42528 ft | 425 kts | 329° |
| 2026-05-06 09:02 | 36.89914 | 24.16895 | 42796 ft | 426 kts | 329° |
| 2026-05-06 09:02 | 36.92531 | 24.15158 | 43060 ft | 425 kts | 329° |
| 2026-05-06 09:03 | 36.95155 | 24.13414 | 43097 ft | 431 kts | 329° |
| 2026-05-06 09:03 | 37.00538 | 24.09833 | 43107 ft | 444 kts | 329° |
| 2026-05-06 09:04 | 37.06074 | 24.06147 | 43106 ft | 456 kts | 329° |
| 2026-05-06 09:04 | 37.11706 | 24.02389 | 43103 ft | 466 kts | 329° |
| 2026-05-06 09:05 | 37.17485 | 23.98527 | 43099 ft | 473 kts | 329° |
| 2026-05-06 09:05 | 37.23327 | 23.94615 | 43100 ft | 477 kts | 329° |
| 2026-05-06 09:06 | 37.29187 | 23.90685 | 43108 ft | 478 kts | 329° |
| 2026-05-06 09:06 | 37.35046 | 23.86749 | 43097 ft | 477 kts | 329° |
| 2026-05-06 09:07 | 37.40891 | 23.82813 | 43093 ft | 477 kts | 329° |
| 2026-05-06 09:07 | 37.46742 | 23.78869 | 43089 ft | 477 kts | 329° |
| 2026-05-06 09:08 | 37.52589 | 23.74917 | 43085 ft | 477 kts | 329° |
| 2026-05-06 09:08 | 37.58441 | 23.70958 | 43087 ft | 477 kts | 329° |
| 2026-05-06 09:09 | 37.64267 | 23.67007 | 43084 ft | 477 kts | 329° |
| 2026-05-06 09:09 | 37.70112 | 23.63038 | 43084 ft | 477 kts | 329° |
| 2026-05-06 09:10 | 37.75957 | 23.59061 | 43088 ft | 477 kts | 329° |
| 2026-05-06 09:10 | 37.81798 | 23.55080 | 43100 ft | 477 kts | 329° |
| 2026-05-06 09:11 | 37.87601 | 23.51117 | 43081 ft | 476 kts | 329° |
| 2026-05-06 09:11 | 37.93434 | 23.47127 | 43081 ft | 476 kts | 329° |
| 2026-05-06 09:12 | 37.99265 | 23.43131 | 43075 ft | 476 kts | 329° |
| 2026-05-06 09:12 | 38.05104 | 23.39120 | 43071 ft | 478 kts | 329° |
| 2026-05-06 09:13 | 38.10953 | 23.35098 | 43080 ft | 477 kts | 329° |
| 2026-05-06 09:13 | 38.16806 | 23.31064 | 43085 ft | 478 kts | 329° |
| 2026-05-06 09:14 | 38.22611 | 23.27057 | 43077 ft | 478 kts | 329° |
| 2026-05-06 09:14 | 38.28450 | 23.23018 | 43079 ft | 478 kts | 329° |
| 2026-05-06 09:15 | 38.34299 | 23.18966 | 43079 ft | 478 kts | 329° |
| 2026-05-06 09:15 | 38.39403 | 23.15423 | 43076 ft | 478 kts | 329° |
| 2026-05-06 09:16 | 38.45198 | 23.11393 | 43068 ft | 477 kts | 329° |
| 2026-05-06 09:16 | 38.51033 | 23.07324 | 43069 ft | 478 kts | 329° |
| 2026-05-06 09:17 | 38.56881 | 23.03250 | 43080 ft | 479 kts | 329° |
| 2026-05-06 09:17 | 38.62736 | 22.99155 | 43072 ft | 479 kts | 329° |
| 2026-05-06 09:18 | 38.68587 | 22.95055 | 43074 ft | 479 kts | 329° |
| 2026-05-06 09:18 | 38.74437 | 22.90950 | 43075 ft | 479 kts | 329° |
| 2026-05-06 09:19 | 38.80247 | 22.86863 | 43077 ft | 479 kts | 329° |
| 2026-05-06 09:19 | 38.86099 | 22.82741 | 43073 ft | 479 kts | 329° |
| 2026-05-06 09:20 | 38.91943 | 22.78616 | 43075 ft | 480 kts | 329° |
| 2026-05-06 09:20 | 38.97794 | 22.74479 | 43070 ft | 480 kts | 329° |
| 2026-05-06 09:21 | 39.03646 | 22.70331 | 43070 ft | 480 kts | 329° |
| 2026-05-06 09:21 | 39.09474 | 22.66194 | 43072 ft | 481 kts | 329° |
| 2026-05-06 09:22 | 39.15321 | 22.62039 | 43087 ft | 480 kts | 329° |
| 2026-05-06 09:22 | 39.21173 | 22.57863 | 43079 ft | 480 kts | 329° |
| 2026-05-06 09:23 | 39.27014 | 22.53696 | 43086 ft | 479 kts | 329° |
| 2026-05-06 09:23 | 39.32860 | 22.49513 | 43081 ft | 480 kts | 329° |
| 2026-05-06 09:24 | 39.38702 | 22.45326 | 43061 ft | 480 kts | 329° |
| 2026-05-06 09:24 | 39.44510 | 22.41154 | 43066 ft | 481 kts | 329° |
| 2026-05-06 09:25 | 39.50365 | 22.36943 | 43068 ft | 481 kts | 329° |
| 2026-05-06 09:25 | 39.56211 | 22.32727 | 43073 ft | 481 kts | 329° |
| 2026-05-06 09:26 | 39.62065 | 22.28500 | 43063 ft | 481 kts | 329° |
| 2026-05-06 09:26 | 39.67915 | 22.24265 | 43064 ft | 481 kts | 329° |
| 2026-05-06 09:27 | 39.72779 | 22.20739 | 43077 ft | 481 kts | 329° |
| 2026-05-06 09:27 | 39.79582 | 22.15798 | 43074 ft | 481 kts | 329° |
| 2026-05-06 09:28 | 39.85436 | 22.11535 | 43053 ft | 482 kts | 329° |
| 2026-05-06 09:28 | 39.90307 | 22.07983 | 43064 ft | 482 kts | 329° |
| 2026-05-06 09:29 | 39.96164 | 22.03703 | 43058 ft | 483 kts | 329° |
| 2026-05-06 09:29 | 40.02023 | 21.99414 | 43074 ft | 483 kts | 329° |
| 2026-05-06 09:30 | 40.07877 | 21.95120 | 43095 ft | 483 kts | 329° |
| 2026-05-06 09:30 | 40.13732 | 21.90817 | 43100 ft | 483 kts | 329° |
| 2026-05-06 09:31 | 40.19589 | 21.86503 | 43102 ft | 482 kts | 328° |
| 2026-05-06 09:31 | 40.25404 | 21.82212 | 43108 ft | 483 kts | 328° |
| 2026-05-06 09:32 | 40.31255 | 21.77885 | 43103 ft | 483 kts | 328° |
| 2026-05-06 09:32 | 40.37113 | 21.73546 | 43092 ft | 483 kts | 328° |
| 2026-05-06 09:33 | 40.42863 | 21.69281 | 43093 ft | 459 kts | 328° |
| 2026-05-06 09:33 | 40.48339 | 21.65204 | 43211 ft | 451 kts | 328° |
| 2026-05-06 09:33 | 40.51019 | 21.63210 | 44081 ft | 435 kts | 328° |
| 2026-05-06 09:34 | 40.53657 | 21.61244 | 44306 ft | 437 kts | 328° |
| 2026-05-06 09:34 | 40.56273 | 21.59290 | 44567 ft | 438 kts | 328° |
| 2026-05-06 09:34 | 40.58925 | 21.57307 | 44828 ft | 439 kts | 328° |
| 2026-05-06 09:34 | 40.61586 | 21.55319 | 45065 ft | 439 kts | 328° |
| 2026-05-06 09:35 | 40.64261 | 21.53318 | 45075 ft | 445 kts | 328° |
| 2026-05-06 09:35 | 40.69721 | 21.49225 | 45084 ft | 456 kts | 328° |
| 2026-05-06 09:36 | 40.75307 | 21.45032 | 45086 ft | 467 kts | 328° |
| 2026-05-06 09:36 | 40.81009 | 21.40742 | 45087 ft | 476 kts | 328° |
| 2026-05-06 09:37 | 40.86690 | 21.36173 | 45073 ft | 478 kts | 321° |
| 2026-05-06 09:37 | 40.91257 | 21.29941 | 45089 ft | 476 kts | 308° |
| 2026-05-06 09:38 | 40.95428 | 21.23128 | 45092 ft | 477 kts | 309° |
| 2026-05-06 09:38 | 40.99668 | 21.16385 | 45089 ft | 476 kts | 308° |
| 2026-05-06 09:39 | 41.03850 | 21.09582 | 45098 ft | 475 kts | 308° |
| 2026-05-06 09:39 | 41.08051 | 21.02823 | 45105 ft | 475 kts | 308° |
| 2026-05-06 09:40 | 41.12206 | 20.96070 | 45119 ft | 475 kts | 308° |
| 2026-05-06 09:40 | 41.18487 | 20.85874 | 45131 ft | 475 kts | 308° |
| 2026-05-06 09:41 | 41.22669 | 20.79055 | 45126 ft | 475 kts | 308° |
| 2026-05-06 09:41 | 41.26846 | 20.72236 | 45127 ft | 475 kts | 308° |
| 2026-05-06 09:42 | 41.30992 | 20.65447 | 45123 ft | 475 kts | 308° |
| 2026-05-06 09:42 | 41.35159 | 20.58612 | 45100 ft | 476 kts | 308° |
| 2026-05-06 09:43 | 41.39340 | 20.51738 | 45089 ft | 476 kts | 307° |
| 2026-05-06 09:43 | 41.43509 | 20.44867 | 45105 ft | 477 kts | 307° |
| 2026-05-06 09:44 | 41.47680 | 20.37979 | 45098 ft | 477 kts | 307° |
| 2026-05-06 09:44 | 41.51841 | 20.31091 | 45110 ft | 477 kts | 307° |
| 2026-05-06 09:45 | 41.55966 | 20.24247 | 45091 ft | 476 kts | 307° |
| 2026-05-06 09:45 | 41.60119 | 20.17339 | 45089 ft | 476 kts | 307° |
| 2026-05-06 09:46 | 41.64263 | 20.10434 | 45103 ft | 476 kts | 307° |
| 2026-05-06 09:46 | 41.68411 | 20.03502 | 45103 ft | 476 kts | 307° |
| 2026-05-06 09:47 | 41.72528 | 19.96609 | 45102 ft | 476 kts | 307° |
| 2026-05-06 09:47 | 41.76662 | 19.89671 | 45105 ft | 476 kts | 307° |
| 2026-05-06 09:48 | 41.80794 | 19.82721 | 45099 ft | 476 kts | 307° |
| 2026-05-06 09:48 | 41.84927 | 19.75754 | 45106 ft | 477 kts | 306° |
| 2026-05-06 09:49 | 41.89049 | 19.68787 | 45113 ft | 477 kts | 306° |
| 2026-05-06 09:49 | 41.93171 | 19.61807 | 45103 ft | 477 kts | 306° |
| 2026-05-06 09:50 | 41.97264 | 19.54857 | 45108 ft | 477 kts | 306° |
| 2026-05-06 09:50 | 42.01373 | 19.47864 | 45109 ft | 477 kts | 306° |
| 2026-05-06 09:51 | 42.05489 | 19.40846 | 45109 ft | 478 kts | 306° |
| 2026-05-06 09:51 | 42.09605 | 19.33808 | 45105 ft | 478 kts | 306° |
| 2026-05-06 09:52 | 42.13728 | 19.26760 | 45102 ft | 478 kts | 306° |
| 2026-05-06 09:52 | 42.17797 | 19.19737 | 45106 ft | 478 kts | 306° |
| 2026-05-06 09:53 | 42.21913 | 19.12670 | 45104 ft | 480 kts | 306° |
| 2026-05-06 09:53 | 42.26022 | 19.05575 | 45106 ft | 479 kts | 306° |
| 2026-05-06 09:54 | 42.30107 | 18.98513 | 45096 ft | 476 kts | 306° |
| 2026-05-06 09:54 | 42.34195 | 18.91423 | 45114 ft | 479 kts | 306° |
| 2026-05-06 09:55 | 42.38287 | 18.84310 | 45102 ft | 479 kts | 306° |
| 2026-05-06 09:55 | 42.42380 | 18.77180 | 45116 ft | 480 kts | 305° |
| 2026-05-06 09:56 | 42.46456 | 18.70062 | 45106 ft | 481 kts | 305° |
| 2026-05-06 09:56 | 42.50560 | 18.62878 | 45104 ft | 482 kts | 305° |
| 2026-05-06 09:57 | 42.54666 | 18.55673 | 45104 ft | 483 kts | 305° |
| 2026-05-06 09:57 | 42.58762 | 18.48468 | 45099 ft | 482 kts | 305° |